sensor_id;sensor_type;location;lat;lon;timestamp;noise_LAeq;noise_LA_min;noise_LA_max;noise_LA01;noise_LA95
49568;Laerm;35474;51.032;6.998;2022-10-26T00:00:34;47.79;44.51;54.62;;
49568;Laerm;35474;51.032;6.998;2022-10-26T00:03:01;52.13;44.15;64.98;;
49568;Laerm;35474;51.032;6.998;2022-10-26T00:05:31;50.44;44.76;68.40;;
49568;Laerm;35474;51.032;6.998;2022-10-26T00:07:59;51.79;45.42;64.05;;
49568;Laerm;35474;51.032;6.998;2022-10-26T00:10:26;54.38;44.31;77.24;;
49568;Laerm;35474;51.032;6.998;2022-10-26T00:12:56;54.94;44.97;82.06;;
49568;Laerm;35474;51.032;6.998;2022-10-26T00:15:23;49.17;43.99;63.78;;
49568;Laerm;35474;51.032;6.998;2022-10-26T00:17:49;54.73;45.11;66.25;;
49568;Laerm;35474;51.032;6.998;2022-10-26T00:20:16;48.92;44.76;55.61;;
49568;Laerm;35474;51.032;6.998;2022-10-26T00:22:43;48.77;44.69;64.68;;
49568;Laerm;35474;51.032;6.998;2022-10-26T00:25:09;57.25;44.47;70.98;;
49568;Laerm;35474;51.032;6.998;2022-10-26T00:27:36;47.54;44.15;57.97;;
49568;Laerm;35474;51.032;6.998;2022-10-26T00:30:04;54.83;45.36;66.09;;
49568;Laerm;35474;51.032;6.998;2022-10-26T00:32:31;47.95;44.65;56.16;;
49568;Laerm;35474;51.032;6.998;2022-10-26T00:34:58;54.96;44.47;66.73;;
49568;Laerm;35474;51.032;6.998;2022-10-26T00:37:45;46.94;43.90;52.04;;
49568;Laerm;35474;51.032;6.998;2022-10-26T00:40:12;48.73;44.73;54.48;;
49568;Laerm;35474;51.032;6.998;2022-10-26T00:42:40;48.82;44.90;59.12;;
49568;Laerm;35474;51.032;6.998;2022-10-26T00:45:23;52.55;44.73;64.13;;
49568;Laerm;35474;51.032;6.998;2022-10-26T00:47:52;54.18;44.35;66.32;;
49568;Laerm;35474;51.032;6.998;2022-10-26T00:52:51;50.77;44.80;70.30;;
49568;Laerm;35474;51.032;6.998;2022-10-26T00:55:20;49.08;44.94;56.91;;
49568;Laerm;35474;51.032;6.998;2022-10-26T00:57:50;50.96;45.17;59.53;;
49568;Laerm;35474;51.032;6.998;2022-10-26T01:00:18;54.46;45.39;66.70;;
49568;Laerm;35474;51.032;6.998;2022-10-26T01:02:45;49.01;45.11;62.76;;
49568;Laerm;35474;51.032;6.998;2022-10-26T01:05:14;50.66;44.80;62.56;;
49568;Laerm;35474;51.032;6.998;2022-10-26T01:07:43;55.30;44.76;67.96;;
49568;Laerm;35474;51.032;6.998;2022-10-26T01:10:11;53.95;45.63;67.74;;
49568;Laerm;35474;51.032;6.998;2022-10-26T01:12:39;52.39;44.90;64.14;;
49568;Laerm;35474;51.032;6.998;2022-10-26T01:15:06;50.11;45.89;58.92;;
49568;Laerm;35474;51.032;6.998;2022-10-26T01:20:54;50.92;45.07;75.52;;
49568;Laerm;35474;51.032;6.998;2022-10-26T01:23:31;51.33;46.91;64.30;;
49568;Laerm;35474;51.032;6.998;2022-10-26T01:28:32;54.54;44.07;74.14;;
49568;Laerm;35474;51.032;6.998;2022-10-26T01:31:03;55.50;45.04;67.27;;
49568;Laerm;35474;51.032;6.998;2022-10-26T01:33:48;54.23;45.36;68.64;;
49568;Laerm;35474;51.032;6.998;2022-10-26T01:36:25;55.36;45.91;67.57;;
49568;Laerm;35474;51.032;6.998;2022-10-26T01:38:58;55.62;45.30;73.06;;
49568;Laerm;35474;51.032;6.998;2022-10-26T01:41:30;52.51;45.51;75.58;;
49568;Laerm;35474;51.032;6.998;2022-10-26T01:46:44;52.92;44.80;64.85;;
49568;Laerm;35474;51.032;6.998;2022-10-26T01:49:13;48.05;43.72;55.57;;
49568;Laerm;35474;51.032;6.998;2022-10-26T01:51:43;49.31;44.69;66.51;;
49568;Laerm;35474;51.032;6.998;2022-10-26T01:54:10;52.28;45.99;75.85;;
49568;Laerm;35474;51.032;6.998;2022-10-26T01:56:46;55.69;44.58;68.82;;
49568;Laerm;35474;51.032;6.998;2022-10-26T01:59:24;53.81;45.14;67.10;;
49568;Laerm;35474;51.032;6.998;2022-10-26T02:18:30;56.26;45.07;67.77;;
49568;Laerm;35474;51.032;6.998;2022-10-26T02:21:05;59.15;47.36;72.71;;
49568;Laerm;35474;51.032;6.998;2022-10-26T02:23:34;51.95;45.39;70.65;;
49568;Laerm;35474;51.032;6.998;2022-10-26T02:26:04;51.88;46.07;64.85;;
49568;Laerm;35474;51.032;6.998;2022-10-26T02:28:35;52.59;45.66;66.83;;
49568;Laerm;35474;51.032;6.998;2022-10-26T02:31:05;59.84;45.63;75.95;;
49568;Laerm;35474;51.032;6.998;2022-10-26T02:33:37;58.87;46.22;68.84;;
49568;Laerm;35474;51.032;6.998;2022-10-26T02:36:07;57.09;45.77;69.28;;
49568;Laerm;35474;51.032;6.998;2022-10-26T02:38:34;53.60;46.91;70.91;;
49568;Laerm;35474;51.032;6.998;2022-10-26T02:41:03;56.28;45.42;67.84;;
49568;Laerm;35474;51.032;6.998;2022-10-26T02:43:33;57.07;45.23;67.47;;
49568;Laerm;35474;51.032;6.998;2022-10-26T02:46:07;57.12;46.20;76.83;;
49568;Laerm;35474;51.032;6.998;2022-10-26T02:48:36;56.46;47.46;77.05;;
49568;Laerm;35474;51.032;6.998;2022-10-26T02:51:10;63.33;45.94;83.90;;
49568;Laerm;35474;51.032;6.998;2022-10-26T02:53:53;59.69;47.19;78.81;;
49568;Laerm;35474;51.032;6.998;2022-10-26T02:56:27;57.13;47.77;76.94;;
49568;Laerm;35474;51.032;6.998;2022-10-26T02:58:58;60.37;49.34;71.66;;
49568;Laerm;35474;51.032;6.998;2022-10-26T03:01:27;59.02;46.71;71.84;;
49568;Laerm;35474;51.032;6.998;2022-10-26T03:03:58;57.10;46.91;68.93;;
49568;Laerm;35474;51.032;6.998;2022-10-26T03:06:25;54.71;47.54;66.98;;
49568;Laerm;35474;51.032;6.998;2022-10-26T03:08:52;57.38;47.57;71.73;;
49568;Laerm;35474;51.032;6.998;2022-10-26T03:11:18;62.07;47.04;82.71;;
49568;Laerm;35474;51.032;6.998;2022-10-26T03:13:45;63.82;48.75;90.77;;
49568;Laerm;35474;51.032;6.998;2022-10-26T03:16:11;59.86;48.49;80.79;;
49568;Laerm;35474;51.032;6.998;2022-10-26T03:18:38;60.50;47.76;81.26;;
49568;Laerm;35474;51.032;6.998;2022-10-26T03:21:04;63.18;48.90;85.28;;
49568;Laerm;35474;51.032;6.998;2022-10-26T03:23:31;62.51;49.08;75.90;;
49568;Laerm;35474;51.032;6.998;2022-10-26T03:25:58;62.51;50.10;77.72;;
49568;Laerm;35474;51.032;6.998;2022-10-26T03:28:25;65.59;49.92;86.78;;
49568;Laerm;35474;51.032;6.998;2022-10-26T03:30:51;60.09;49.41;70.44;;
49568;Laerm;35474;51.032;6.998;2022-10-26T03:33:18;64.12;50.56;76.20;;
49568;Laerm;35474;51.032;6.998;2022-10-26T03:35:54;62.02;49.64;82.49;;
49568;Laerm;35474;51.032;6.998;2022-10-26T03:38:22;62.24;50.70;71.95;;
49568;Laerm;35474;51.032;6.998;2022-10-26T03:40:48;62.13;49.65;74.88;;
49568;Laerm;35474;51.032;6.998;2022-10-26T03:43:15;62.53;49.10;76.26;;
49568;Laerm;35474;51.032;6.998;2022-10-26T03:45:41;64.72;49.71;83.42;;
49568;Laerm;35474;51.032;6.998;2022-10-26T03:48:08;63.64;50.24;79.31;;
49568;Laerm;35474;51.032;6.998;2022-10-26T03:50:35;64.93;49.53;90.26;;
49568;Laerm;35474;51.032;6.998;2022-10-26T03:53:02;64.93;50.39;89.46;;
49568;Laerm;35474;51.032;6.998;2022-10-26T03:55:29;62.80;49.89;84.15;;
49568;Laerm;35474;51.032;6.998;2022-10-26T03:57:55;64.71;50.58;87.20;;
49568;Laerm;35474;51.032;6.998;2022-10-26T04:00:22;60.91;49.27;74.14;;
49568;Laerm;35474;51.032;6.998;2022-10-26T04:02:57;68.04;50.40;91.00;;
49568;Laerm;35474;51.032;6.998;2022-10-26T04:05:24;62.76;48.90;78.29;;
49568;Laerm;35474;51.032;6.998;2022-10-26T04:07:56;61.80;50.73;82.15;;
49568;Laerm;35474;51.032;6.998;2022-10-26T04:10:24;67.34;54.09;88.00;;
49568;Laerm;35474;51.032;6.998;2022-10-26T04:12:51;65.17;51.64;84.93;;
49568;Laerm;35474;51.032;6.998;2022-10-26T04:15:18;63.73;51.00;81.75;;
49568;Laerm;35474;51.032;6.998;2022-10-26T04:17:45;63.80;49.29;80.05;;
49568;Laerm;35474;51.032;6.998;2022-10-26T04:20:13;65.59;49.33;83.92;;
49568;Laerm;35474;51.032;6.998;2022-10-26T04:22:39;67.05;50.52;89.10;;
49568;Laerm;35474;51.032;6.998;2022-10-26T04:25:06;65.48;51.19;84.43;;
49568;Laerm;35474;51.032;6.998;2022-10-26T04:27:33;65.82;49.58;80.44;;
49568;Laerm;35474;51.032;6.998;2022-10-26T04:30:00;63.18;48.78;83.38;;
49568;Laerm;35474;51.032;6.998;2022-10-26T04:32:27;64.35;52.51;79.38;;
49568;Laerm;35474;51.032;6.998;2022-10-26T04:34:53;65.57;50.44;91.32;;
49568;Laerm;35474;51.032;6.998;2022-10-26T04:37:20;66.44;49.69;81.49;;
49568;Laerm;35474;51.032;6.998;2022-10-26T04:39:47;63.50;50.36;77.52;;
49568;Laerm;35474;51.032;6.998;2022-10-26T04:42:13;65.20;50.81;81.50;;
49568;Laerm;35474;51.032;6.998;2022-10-26T04:44:40;65.20;50.51;82.95;;
49568;Laerm;35474;51.032;6.998;2022-10-26T04:47:06;66.25;53.86;78.97;;
49568;Laerm;35474;51.032;6.998;2022-10-26T04:49:33;65.03;50.49;73.94;;
49568;Laerm;35474;51.032;6.998;2022-10-26T04:51:59;65.21;54.25;86.13;;
49568;Laerm;35474;51.032;6.998;2022-10-26T04:54:26;62.68;51.95;69.64;;
49568;Laerm;35474;51.032;6.998;2022-10-26T04:56:52;64.49;49.79;80.43;;
49568;Laerm;35474;51.032;6.998;2022-10-26T04:59:19;64.42;53.63;74.47;;
49568;Laerm;35474;51.032;6.998;2022-10-26T05:01:45;65.35;54.77;81.53;;
49568;Laerm;35474;51.032;6.998;2022-10-26T05:04:12;63.91;52.35;76.73;;
49568;Laerm;35474;51.032;6.998;2022-10-26T05:06:39;63.93;49.97;71.56;;
49568;Laerm;35474;51.032;6.998;2022-10-26T05:09:05;66.40;50.28;74.57;;
49568;Laerm;35474;51.032;6.998;2022-10-26T05:11:32;66.15;55.66;73.31;;
49568;Laerm;35474;51.032;6.998;2022-10-26T05:13:58;65.35;52.83;81.81;;
49568;Laerm;35474;51.032;6.998;2022-10-26T05:16:25;66.16;52.08;76.42;;
49568;Laerm;35474;51.032;6.998;2022-10-26T05:18:51;66.04;52.82;73.77;;
49568;Laerm;35474;51.032;6.998;2022-10-26T05:21:18;63.56;51.72;71.57;;
49568;Laerm;35474;51.032;6.998;2022-10-26T05:23:49;64.58;51.89;75.43;;
49568;Laerm;35474;51.032;6.998;2022-10-26T05:26:18;64.21;50.41;74.32;;
49568;Laerm;35474;51.032;6.998;2022-10-26T05:28:45;64.23;50.70;83.66;;
49568;Laerm;35474;51.032;6.998;2022-10-26T05:31:11;65.86;53.64;74.80;;
49568;Laerm;35474;51.032;6.998;2022-10-26T05:33:38;66.46;53.77;74.01;;
49568;Laerm;35474;51.032;6.998;2022-10-26T05:36:05;64.80;55.93;70.93;;
49568;Laerm;35474;51.032;6.998;2022-10-26T05:38:33;64.21;50.64;71.58;;
49568;Laerm;35474;51.032;6.998;2022-10-26T05:41:00;66.20;57.29;75.51;;
49568;Laerm;35474;51.032;6.998;2022-10-26T05:43:27;65.71;49.87;73.44;;
49568;Laerm;35474;51.032;6.998;2022-10-26T05:45:54;63.89;53.61;76.67;;
49568;Laerm;35474;51.032;6.998;2022-10-26T05:48:20;66.92;55.19;90.11;;
49568;Laerm;35474;51.032;6.998;2022-10-26T05:50:47;65.73;53.85;75.66;;
49568;Laerm;35474;51.032;6.998;2022-10-26T05:53:13;63.08;52.51;70.72;;
49568;Laerm;35474;51.032;6.998;2022-10-26T05:55:42;64.80;52.85;78.72;;
49568;Laerm;35474;51.032;6.998;2022-10-26T05:58:13;64.05;55.52;71.40;;
49568;Laerm;35474;51.032;6.998;2022-10-26T06:01:26;65.41;53.44;75.00;;
49568;Laerm;35474;51.032;6.998;2022-10-26T06:04:25;64.49;52.80;74.23;;
49568;Laerm;35474;51.032;6.998;2022-10-26T06:06:56;65.62;54.74;83.06;;
49568;Laerm;35474;51.032;6.998;2022-10-26T06:09:24;63.94;51.76;71.50;;
49568;Laerm;35474;51.032;6.998;2022-10-26T06:11:51;65.27;54.75;71.43;;
49568;Laerm;35474;51.032;6.998;2022-10-26T06:14:17;66.12;50.45;77.62;;
49568;Laerm;35474;51.032;6.998;2022-10-26T06:32:35;64.81;54.55;76.29;;
49568;Laerm;35474;51.032;6.998;2022-10-26T06:37:48;72.34;50.81;92.97;;
49568;Laerm;35474;51.032;6.998;2022-10-26T06:40:16;77.07;53.69;95.05;;
49568;Laerm;35474;51.032;6.998;2022-10-26T06:42:44;68.35;54.27;92.18;;
49568;Laerm;35474;51.032;6.998;2022-10-26T06:45:12;66.25;54.16;81.73;;
49568;Laerm;35474;51.032;6.998;2022-10-26T06:48:06;69.96;51.62;96.05;;
49568;Laerm;35474;51.032;6.998;2022-10-26T06:50:50;65.95;52.57;84.67;;
49568;Laerm;35474;51.032;6.998;2022-10-26T06:53:26;68.08;51.67;92.86;;
49568;Laerm;35474;51.032;6.998;2022-10-26T06:55:59;71.48;53.88;93.07;;
49568;Laerm;35474;51.032;6.998;2022-10-26T06:58:33;67.39;56.12;89.43;;
49568;Laerm;35474;51.032;6.998;2022-10-26T07:01:00;68.17;53.74;92.45;;
49568;Laerm;35474;51.032;6.998;2022-10-26T07:03:27;66.39;52.27;86.15;;
49568;Laerm;35474;51.032;6.998;2022-10-26T07:05:53;69.36;56.91;93.89;;
49568;Laerm;35474;51.032;6.998;2022-10-26T07:08:20;69.26;53.39;94.33;;
49568;Laerm;35474;51.032;6.998;2022-10-26T07:10:47;66.87;52.94;86.91;;
49568;Laerm;35474;51.032;6.998;2022-10-26T07:13:13;74.88;54.87;98.19;;
49568;Laerm;35474;51.032;6.998;2022-10-26T07:15:40;66.35;53.15;81.40;;
49568;Laerm;35474;51.032;6.998;2022-10-26T07:18:08;72.60;56.25;99.00;;
49568;Laerm;35474;51.032;6.998;2022-10-26T07:20:37;67.65;54.29;83.54;;
49568;Laerm;35474;51.032;6.998;2022-10-26T07:23:08;66.03;50.81;79.28;;
49568;Laerm;35474;51.032;6.998;2022-10-26T07:25:38;66.51;51.75;73.79;;
49568;Laerm;35474;51.032;6.998;2022-10-26T07:28:07;66.11;55.99;89.71;;
49568;Laerm;35474;51.032;6.998;2022-10-26T07:30:35;67.10;51.59;87.33;;
49568;Laerm;35474;51.032;6.998;2022-10-26T07:33:05;65.85;55.61;82.87;;
49568;Laerm;35474;51.032;6.998;2022-10-26T07:35:33;65.37;50.30;76.05;;
49568;Laerm;35474;51.032;6.998;2022-10-26T07:38:00;64.62;52.17;72.21;;
49568;Laerm;35474;51.032;6.998;2022-10-26T07:40:28;66.10;52.26;85.80;;
49568;Laerm;35474;51.032;6.998;2022-10-26T07:42:56;66.71;54.53;77.92;;
49568;Laerm;35474;51.032;6.998;2022-10-26T07:45:24;67.74;54.60;87.54;;
49568;Laerm;35474;51.032;6.998;2022-10-26T07:47:50;66.91;56.78;87.45;;
49568;Laerm;35474;51.032;6.998;2022-10-26T07:50:17;70.54;50.73;89.38;;
49568;Laerm;35474;51.032;6.998;2022-10-26T07:52:44;68.07;52.56;88.05;;
49568;Laerm;35474;51.032;6.998;2022-10-26T07:55:10;63.45;50.56;82.10;;
49568;Laerm;35474;51.032;6.998;2022-10-26T07:57:38;67.36;50.21;86.20;;
49568;Laerm;35474;51.032;6.998;2022-10-26T08:00:07;65.66;51.51;80.87;;
49568;Laerm;35474;51.032;6.998;2022-10-26T08:02:34;70.69;51.06;93.43;;
49568;Laerm;35474;51.032;6.998;2022-10-26T08:05:00;67.55;52.12;91.43;;
49568;Laerm;35474;51.032;6.998;2022-10-26T08:07:27;69.25;52.55;90.47;;
49568;Laerm;35474;51.032;6.998;2022-10-26T08:09:53;66.11;50.63;86.85;;
49568;Laerm;35474;51.032;6.998;2022-10-26T08:12:20;72.03;53.41;94.28;;
49568;Laerm;35474;51.032;6.998;2022-10-26T08:14:46;67.96;54.17;88.15;;
49568;Laerm;35474;51.032;6.998;2022-10-26T08:17:13;67.90;50.23;86.70;;
49568;Laerm;35474;51.032;6.998;2022-10-26T08:19:39;71.38;51.76;91.68;;
49568;Laerm;35474;51.032;6.998;2022-10-26T08:22:06;66.76;51.36;82.37;;
49568;Laerm;35474;51.032;6.998;2022-10-26T08:24:32;72.26;52.70;93.02;;
49568;Laerm;35474;51.032;6.998;2022-10-26T08:26:59;68.82;50.65;92.25;;
49568;Laerm;35474;51.032;6.998;2022-10-26T08:29:25;67.45;54.32;86.16;;
49568;Laerm;35474;51.032;6.998;2022-10-26T08:31:52;67.69;51.17;89.20;;
49568;Laerm;35474;51.032;6.998;2022-10-26T08:34:18;64.75;49.57;79.83;;
49568;Laerm;35474;51.032;6.998;2022-10-26T08:36:44;65.58;53.41;79.12;;
49568;Laerm;35474;51.032;6.998;2022-10-26T08:39:11;66.89;50.39;91.22;;
49568;Laerm;35474;51.032;6.998;2022-10-26T08:41:43;74.72;55.94;98.00;;
49568;Laerm;35474;51.032;6.998;2022-10-26T08:46:44;66.88;54.37;85.80;;
49568;Laerm;35474;51.032;6.998;2022-10-26T08:49:24;70.90;51.47;92.85;;
49568;Laerm;35474;51.032;6.998;2022-10-26T08:51:56;73.02;58.36;95.81;;
49568;Laerm;35474;51.032;6.998;2022-10-26T08:54:36;68.70;51.93;88.36;;
49568;Laerm;35474;51.032;6.998;2022-10-26T08:57:15;64.55;47.79;89.36;;
49568;Laerm;35474;51.032;6.998;2022-10-26T09:00:05;67.14;58.13;76.66;;
49568;Laerm;35474;51.032;6.998;2022-10-26T09:02:32;68.14;51.67;91.30;;
49568;Laerm;35474;51.032;6.998;2022-10-26T09:04:59;68.33;54.77;88.04;;
49568;Laerm;35474;51.032;6.998;2022-10-26T09:07:45;67.38;49.85;90.15;;
49568;Laerm;35474;51.032;6.998;2022-10-26T09:10:32;69.12;52.75;90.94;;
49568;Laerm;35474;51.032;6.998;2022-10-26T09:15:50;65.99;51.15;81.79;;
49568;Laerm;35474;51.032;6.998;2022-10-26T09:18:30;70.54;52.38;91.35;;
49568;Laerm;35474;51.032;6.998;2022-10-26T09:29:10;64.87;53.39;73.78;;
49568;Laerm;35474;51.032;6.998;2022-10-26T09:31:46;65.35;56.48;77.00;;
49568;Laerm;35474;51.032;6.998;2022-10-26T09:34:36;65.35;50.24;72.12;;
49568;Laerm;35474;51.032;6.998;2022-10-26T09:37:20;65.51;50.85;80.29;;
49568;Laerm;35474;51.032;6.998;2022-10-26T09:42:22;64.78;47.16;84.85;;
49568;Laerm;35474;51.032;6.998;2022-10-26T09:44:56;70.78;47.55;94.34;;
49568;Laerm;35474;51.032;6.998;2022-10-26T09:47:46;70.97;53.31;96.98;;
49568;Laerm;35474;51.032;6.998;2022-10-26T09:50:30;65.73;49.64;73.13;;
49568;Laerm;35474;51.032;6.998;2022-10-26T09:52:58;65.64;52.85;73.34;;
49568;Laerm;35474;51.032;6.998;2022-10-26T09:55:25;65.79;51.08;82.93;;
49568;Laerm;35474;51.032;6.998;2022-10-26T09:57:55;64.32;48.48;79.44;;
49568;Laerm;35474;51.032;6.998;2022-10-26T10:00:25;65.28;46.80;87.04;;
49568;Laerm;35474;51.032;6.998;2022-10-26T10:02:54;65.50;50.07;73.06;;
49568;Laerm;35474;51.032;6.998;2022-10-26T10:05:35;67.75;49.44;89.27;;
49568;Laerm;35474;51.032;6.998;2022-10-26T10:08:23;69.26;50.13;96.19;;
49568;Laerm;35474;51.032;6.998;2022-10-26T10:13:27;64.87;50.59;81.80;;
49568;Laerm;35474;51.032;6.998;2022-10-26T10:16:12;68.11;55.60;87.51;;
49568;Laerm;35474;51.032;6.998;2022-10-26T10:18:58;65.50;50.46;82.27;;
49568;Laerm;35474;51.032;6.998;2022-10-26T10:21:40;68.60;50.18;90.07;;
49568;Laerm;35474;51.032;6.998;2022-10-26T10:24:24;64.23;47.40;71.23;;
49568;Laerm;35474;51.032;6.998;2022-10-26T10:29:30;65.52;48.69;75.66;;
49568;Laerm;35474;51.032;6.998;2022-10-26T10:31:59;65.72;51.43;74.79;;
49568;Laerm;35474;51.032;6.998;2022-10-26T10:34:29;66.05;49.56;87.10;;
49568;Laerm;35474;51.032;6.998;2022-10-26T10:36:56;68.66;53.39;88.11;;
49568;Laerm;35474;51.032;6.998;2022-10-26T10:39:40;68.72;45.97;90.75;;
49568;Laerm;35474;51.032;6.998;2022-10-26T10:42:21;68.09;48.66;89.96;;
49568;Laerm;35474;51.032;6.998;2022-10-26T10:44:54;65.56;47.16;75.14;;
49568;Laerm;35474;51.032;6.998;2022-10-26T10:47:30;65.70;54.93;72.88;;
49568;Laerm;35474;51.032;6.998;2022-10-26T10:50:18;63.93;49.00;70.77;;
49568;Laerm;35474;51.032;6.998;2022-10-26T10:52:46;63.93;46.87;72.74;;
49568;Laerm;35474;51.032;6.998;2022-10-26T10:55:15;66.46;55.03;76.66;;
49568;Laerm;35474;51.032;6.998;2022-10-26T11:00:24;77.39;48.02;98.76;;
49568;Laerm;35474;51.032;6.998;2022-10-26T11:06:05;65.81;48.57;83.63;;
49568;Laerm;35474;51.032;6.998;2022-10-26T11:08:59;64.84;49.73;76.87;;
49568;Laerm;35474;51.032;6.998;2022-10-26T11:11:53;67.08;50.13;83.86;;
49568;Laerm;35474;51.032;6.998;2022-10-26T11:14:29;68.32;46.05;100.84;;
49568;Laerm;35474;51.032;6.998;2022-10-26T11:17:20;64.93;51.42;80.12;;
49568;Laerm;35474;51.032;6.998;2022-10-26T11:19:52;64.53;50.98;77.01;;
49568;Laerm;35474;51.032;6.998;2022-10-26T11:25:33;64.37;45.80;80.17;;
49568;Laerm;35474;51.032;6.998;2022-10-26T11:28:23;64.16;50.11;78.74;;
49568;Laerm;35474;51.032;6.998;2022-10-26T11:30:57;63.89;44.76;73.76;;
49568;Laerm;35474;51.032;6.998;2022-10-26T11:33:39;65.20;48.64;74.28;;
49568;Laerm;35474;51.032;6.998;2022-10-26T11:36:11;65.16;51.07;75.53;;
49568;Laerm;35474;51.032;6.998;2022-10-26T11:38:56;64.62;49.14;81.27;;
49568;Laerm;35474;51.032;6.998;2022-10-26T11:41:50;64.81;46.10;72.40;;
49568;Laerm;35474;51.032;6.998;2022-10-26T11:47:03;69.12;58.28;84.65;;
49568;Laerm;35474;51.032;6.998;2022-10-26T11:49:49;79.55;54.35;99.12;;
49568;Laerm;35474;51.032;6.998;2022-10-26T11:52:34;67.11;51.05;81.52;;
49568;Laerm;35474;51.032;6.998;2022-10-26T11:55:03;67.16;53.53;90.12;;
49568;Laerm;35474;51.032;6.998;2022-10-26T11:57:34;65.75;49.94;78.80;;
49568;Laerm;35474;51.032;6.998;2022-10-26T12:00:07;67.89;54.29;79.37;;
49568;Laerm;35474;51.032;6.998;2022-10-26T12:02:41;64.55;52.00;81.25;;
49568;Laerm;35474;51.032;6.998;2022-10-26T12:05:18;70.02;53.64;90.20;;
49568;Laerm;35474;51.032;6.998;2022-10-26T12:07:55;70.80;57.50;89.04;;
49568;Laerm;35474;51.032;6.998;2022-10-26T12:10:34;72.90;59.07;96.36;;
49568;Laerm;35474;51.032;6.998;2022-10-26T12:15:58;72.03;60.53;89.91;;
49568;Laerm;35474;51.032;6.998;2022-10-26T12:18:36;70.03;58.77;88.45;;
49568;Laerm;35474;51.032;6.998;2022-10-26T12:21:27;73.88;57.88;98.66;;
49568;Laerm;35474;51.032;6.998;2022-10-26T12:24:30;70.79;52.96;94.41;;
49568;Laerm;35474;51.032;6.998;2022-10-26T12:27:02;68.78;53.70;88.72;;
49568;Laerm;35474;51.032;6.998;2022-10-26T12:29:35;67.24;51.13;85.28;;
49568;Laerm;35474;51.032;6.998;2022-10-26T12:32:04;66.44;55.47;80.01;;
49568;Laerm;35474;51.032;6.998;2022-10-26T12:37:36;67.97;50.85;83.90;;
49568;Laerm;35474;51.032;6.998;2022-10-26T12:48:49;66.62;55.05;80.26;;
49568;Laerm;35474;51.032;6.998;2022-10-26T12:54:19;64.94;54.69;85.61;;
49568;Laerm;35474;51.032;6.998;2022-10-26T12:56:57;63.28;50.10;77.83;;
49568;Laerm;35474;51.032;6.998;2022-10-26T12:59:37;64.88;47.48;80.49;;
49568;Laerm;35474;51.032;6.998;2022-10-26T13:07:45;70.58;54.47;92.62;;
49568;Laerm;35474;51.032;6.998;2022-10-26T13:15:22;67.86;51.93;88.23;;
49568;Laerm;35474;51.032;6.998;2022-10-26T13:17:57;65.48;52.08;83.53;;
49568;Laerm;35474;51.032;6.998;2022-10-26T13:20:25;67.68;50.98;84.39;;
49568;Laerm;35474;51.032;6.998;2022-10-26T13:22:52;69.14;47.24;88.10;;
49568;Laerm;35474;51.032;6.998;2022-10-26T13:25:27;66.42;53.73;79.50;;
49568;Laerm;35474;51.032;6.998;2022-10-26T13:28:01;65.85;54.07;84.46;;
49568;Laerm;35474;51.032;6.998;2022-10-26T13:30:35;72.37;56.97;94.22;;
49568;Laerm;35474;51.032;6.998;2022-10-26T13:33:14;68.16;52.90;89.64;;
49568;Laerm;35474;51.032;6.998;2022-10-26T13:35:42;67.37;53.18;88.74;;
49568;Laerm;35474;51.032;6.998;2022-10-26T13:38:11;67.89;48.02;89.38;;
49568;Laerm;35474;51.032;6.998;2022-10-26T13:40:38;66.39;50.37;80.10;;
49568;Laerm;35474;51.032;6.998;2022-10-26T13:43:13;70.68;54.63;89.40;;
49568;Laerm;35474;51.032;6.998;2022-10-26T13:46:01;66.50;50.38;82.41;;
49568;Laerm;35474;51.032;6.998;2022-10-26T13:48:37;67.01;49.82;81.53;;
49568;Laerm;35474;51.032;6.998;2022-10-26T13:51:24;65.95;49.16;78.81;;
49568;Laerm;35474;51.032;6.998;2022-10-26T13:53:56;67.45;55.16;78.73;;
49568;Laerm;35474;51.032;6.998;2022-10-26T13:56:36;66.35;53.27;79.16;;
49568;Laerm;35474;51.032;6.998;2022-10-26T13:59:10;66.26;51.39;73.79;;
49568;Laerm;35474;51.032;6.998;2022-10-26T14:01:38;66.13;53.91;76.65;;
49568;Laerm;35474;51.032;6.998;2022-10-26T14:04:26;68.35;52.62;91.05;;
49568;Laerm;35474;51.032;6.998;2022-10-26T14:06:53;69.02;55.30;87.33;;
49568;Laerm;35474;51.032;6.998;2022-10-26T14:09:20;65.68;52.29;83.15;;
49568;Laerm;35474;51.032;6.998;2022-10-26T14:11:52;66.97;55.86;81.39;;
49568;Laerm;35474;51.032;6.998;2022-10-26T14:14:23;65.99;51.83;89.09;;
49568;Laerm;35474;51.032;6.998;2022-10-26T14:16:52;65.30;55.26;74.65;;
49568;Laerm;35474;51.032;6.998;2022-10-26T14:19:33;65.69;52.19;78.21;;
49568;Laerm;35474;51.032;6.998;2022-10-26T14:22:02;67.43;57.86;83.67;;
49568;Laerm;35474;51.032;6.998;2022-10-26T14:24:38;65.87;49.72;78.48;;
49568;Laerm;35474;51.032;6.998;2022-10-26T14:27:18;68.04;57.16;89.08;;
49568;Laerm;35474;51.032;6.998;2022-10-26T14:29:45;66.46;51.05;87.85;;
49568;Laerm;35474;51.032;6.998;2022-10-26T14:32:31;63.97;51.13;73.69;;
49568;Laerm;35474;51.032;6.998;2022-10-26T14:34:59;65.29;50.89;79.60;;
49568;Laerm;35474;51.032;6.998;2022-10-26T14:37:38;67.74;59.13;87.72;;
49568;Laerm;35474;51.032;6.998;2022-10-26T14:40:19;66.39;47.72;80.91;;
49568;Laerm;35474;51.032;6.998;2022-10-26T14:42:51;66.24;51.59;77.09;;
49568;Laerm;35474;51.032;6.998;2022-10-26T14:48:19;65.70;52.75;73.43;;
49568;Laerm;35474;51.032;6.998;2022-10-26T14:50:57;65.88;52.22;75.35;;
49568;Laerm;35474;51.032;6.998;2022-10-26T14:53:35;65.02;54.91;79.54;;
49568;Laerm;35474;51.032;6.998;2022-10-26T14:56:03;65.35;51.38;82.99;;
49568;Laerm;35474;51.032;6.998;2022-10-26T14:58:32;81.43;50.04;100.37;;
49568;Laerm;35474;51.032;6.998;2022-10-26T15:01:15;68.34;53.06;89.23;;
49568;Laerm;35474;51.032;6.998;2022-10-26T15:03:43;66.60;49.93;72.89;;
49568;Laerm;35474;51.032;6.998;2022-10-26T15:06:30;65.98;53.95;72.82;;
49568;Laerm;35474;51.032;6.998;2022-10-26T15:09:02;64.57;49.67;77.36;;
49568;Laerm;35474;51.032;6.998;2022-10-26T15:11:31;66.86;59.69;73.60;;
49568;Laerm;35474;51.032;6.998;2022-10-26T15:13:59;66.91;47.61;77.56;;
49568;Laerm;35474;51.032;6.998;2022-10-26T15:16:28;65.24;51.76;71.55;;
49568;Laerm;35474;51.032;6.998;2022-10-26T15:19:07;67.33;51.44;83.41;;
49568;Laerm;35474;51.032;6.998;2022-10-26T15:21:43;65.05;48.20;72.44;;
49568;Laerm;35474;51.032;6.998;2022-10-26T15:26:43;66.18;50.03;77.12;;
49568;Laerm;35474;51.032;6.998;2022-10-26T15:32:31;67.24;51.03;83.63;;
49568;Laerm;35474;51.032;6.998;2022-10-26T15:37:48;65.47;54.10;79.90;;
49568;Laerm;35474;51.032;6.998;2022-10-26T15:40:15;66.45;51.33;86.86;;
49568;Laerm;35474;51.032;6.998;2022-10-26T15:42:42;65.07;46.95;79.89;;
49568;Laerm;35474;51.032;6.998;2022-10-26T15:47:50;67.19;50.06;87.01;;
49568;Laerm;35474;51.032;6.998;2022-10-26T15:50:22;66.58;54.96;76.36;;
49568;Laerm;35474;51.032;6.998;2022-10-26T15:52:54;66.33;52.14;72.96;;
49568;Laerm;35474;51.032;6.998;2022-10-26T15:55:21;64.36;47.53;72.26;;
49568;Laerm;35474;51.032;6.998;2022-10-26T15:57:51;63.70;48.95;78.61;;
49568;Laerm;35474;51.032;6.998;2022-10-26T16:00:18;64.45;55.92;70.20;;
49568;Laerm;35474;51.032;6.998;2022-10-26T16:02:44;67.97;52.68;85.49;;
49568;Laerm;35474;51.032;6.998;2022-10-26T16:05:12;78.66;50.92;97.64;;
49568;Laerm;35474;51.032;6.998;2022-10-26T16:07:42;66.09;53.23;88.63;;
49568;Laerm;35474;51.032;6.998;2022-10-26T16:10:21;66.59;47.46;80.09;;